createdAt,value
2019-04-29T00:02:06.366Z,3.00
2019-04-29T00:04:35.752Z,3.12
2019-04-29T00:07:05.268Z,3.42
2019-04-29T00:09:34.418Z,3.80
2019-04-29T00:12:03.734Z,3.00
2019-04-29T00:14:34.203Z,3.05
2019-04-29T00:17:21.091Z,3.75
2019-04-29T00:20:00.928Z,3.10
2019-04-29T00:22:30.132Z,3.50
2019-04-29T00:24:59.377Z,3.70
2019-04-29T00:27:28.526Z,5.22
2019-04-29T00:29:57.755Z,4.65
2019-04-29T00:32:27.102Z,5.25
2019-04-29T00:34:56.369Z,5.65
2019-04-29T00:37:39.056Z,5.65
2019-04-29T00:40:09.861Z,4.80
2019-04-29T00:42:40.727Z,5.20
2019-04-29T00:45:10.092Z,4.92
2019-04-29T00:47:39.307Z,4.55
2019-04-29T00:50:08.481Z,4.80
2019-04-29T00:52:37.794Z,4.65
2019-04-29T00:55:17.322Z,3.70
2019-04-29T00:57:46.526Z,4.25
2019-04-29T01:00:17.433Z,5.15
2019-04-29T01:02:46.617Z,4.60
2019-04-29T01:05:15.887Z,4.65
2019-04-29T01:07:45.109Z,4.58
2019-04-29T01:10:14.643Z,3.95
2019-04-29T01:12:43.895Z,4.12
2019-04-29T01:15:13.347Z,3.72
2019-04-29T01:17:42.559Z,4.12
2019-04-29T01:20:11.903Z,3.37
2019-04-29T01:22:42.246Z,3.27
2019-04-29T01:25:11.458Z,3.55
2019-04-29T01:27:48.289Z,3.10
2019-04-29T01:30:41.746Z,3.80
2019-04-29T01:33:11.008Z,3.60
2019-04-29T01:35:40.282Z,3.72
2019-04-29T01:38:09.545Z,4.45
2019-04-29T01:40:40.345Z,3.85
2019-04-29T01:43:09.627Z,4.78
2019-04-29T01:45:38.886Z,4.35
2019-04-29T01:48:08.164Z,3.62
2019-04-29T01:50:37.440Z,4.05
2019-04-29T01:53:06.625Z,4.33
2019-04-29T01:55:35.880Z,3.85
2019-04-29T01:58:05.188Z,4.30
2019-04-29T02:00:34.393Z,4.17
2019-04-29T02:03:03.727Z,3.65
2019-04-29T02:05:32.975Z,4.42
2019-04-29T02:08:02.128Z,3.90
2019-04-29T02:10:33.015Z,3.83
2019-04-29T02:13:02.230Z,4.70
2019-04-29T02:15:31.536Z,4.50
2019-04-29T02:18:00.693Z,5.05
2019-04-29T02:20:29.848Z,5.28
2019-04-29T02:23:03.702Z,4.90
2019-04-29T02:25:43.280Z,4.92
2019-04-29T02:28:12.646Z,4.58
2019-04-29T02:30:44.164Z,6.83
2019-04-29T02:33:13.315Z,5.90
2019-04-29T02:35:42.510Z,5.83
2019-04-29T02:38:28.243Z,7.08
2019-04-29T02:40:59.188Z,7.80
2019-04-29T02:43:30.143Z,7.83
2019-04-29T02:45:59.351Z,9.55
2019-04-29T02:48:34.024Z,11.05
2019-04-29T02:50:59.651Z,11.18
2019-04-29T02:53:28.865Z,10.08
2019-04-29T02:55:59.875Z,12.45
2019-04-29T02:58:33.919Z,9.75
2019-04-29T03:01:16.610Z,10.45
2019-04-29T03:03:47.667Z,10.88
2019-04-29T03:06:16.794Z,10.28
2019-04-29T03:08:46.116Z,10.50
2019-04-29T03:11:16.945Z,11.35
2019-04-29T03:13:46.199Z,14.00
2019-04-29T03:16:15.501Z,10.23
2019-04-29T03:18:49.099Z,10.08
2019-04-29T03:21:19.981Z,9.75
2019-04-29T03:23:49.966Z,12.93
2019-04-29T03:26:19.209Z,12.28
2019-04-29T03:28:48.372Z,11.18
2019-04-29T03:31:17.598Z,12.45
2019-04-29T03:33:46.743Z,11.35
2019-04-29T03:36:15.956Z,7.78
2019-04-29T03:38:45.207Z,6.10
2019-04-29T03:41:14.435Z,4.87
2019-04-29T03:43:43.622Z,4.40
2019-04-29T03:46:12.782Z,6.53
2019-04-29T03:48:42.027Z,5.28
2019-04-29T03:51:11.408Z,5.78
2019-04-29T03:53:41.032Z,7.37
2019-04-29T03:56:10.581Z,8.88
2019-04-29T03:58:40.158Z,12.35
2019-04-29T04:01:11.329Z,8.80
2019-04-29T04:03:42.563Z,12.88
2019-04-29T04:06:19.388Z,14.95
2019-04-29T04:09:05.652Z,17.32
2019-04-29T04:11:24.160Z,14.15
2019-04-29T04:13:53.473Z,11.50
2019-04-29T04:16:30.619Z,129.75
2019-04-29T04:19:07.167Z,10.03
2019-04-29T04:21:36.729Z,13.62
2019-04-29T04:24:06.220Z,9.28
2019-04-29T04:26:35.627Z,9.05
2019-04-29T04:29:05.225Z,9.15
2019-04-29T04:31:34.855Z,14.78
2019-04-29T04:34:04.457Z,10.80
2019-04-29T04:36:33.783Z,16.37
2019-04-29T04:39:03.282Z,14.68
2019-04-29T04:41:33.148Z,11.85
2019-04-29T04:44:02.774Z,11.35
2019-04-29T04:46:32.327Z,10.95
2019-04-29T04:49:02.344Z,10.80
2019-04-29T04:51:31.828Z,11.83
2019-04-29T04:54:01.339Z,10.78
2019-04-29T04:56:30.829Z,10.25
2019-04-29T04:59:00.404Z,14.53
2019-04-29T05:01:29.716Z,18.15
2019-04-29T05:03:59.332Z,39.48
2019-04-29T05:06:28.862Z,32.30
2019-04-29T05:08:58.197Z,29.63
2019-04-29T05:11:27.770Z,17.55
2019-04-29T05:13:57.620Z,15.00
2019-04-29T05:16:27.352Z,16.12
2019-04-29T05:18:57.102Z,14.40
2019-04-29T05:21:26.841Z,19.12
2019-04-29T05:23:56.144Z,23.95
2019-04-29T05:26:25.521Z,29.12
2019-04-29T05:28:55.141Z,27.42
2019-04-29T05:31:24.874Z,16.75
2019-04-29T05:33:54.593Z,18.85
2019-04-29T05:36:25.763Z,35.25
2019-04-29T05:38:56.941Z,22.55
2019-04-29T05:41:30.167Z,26.62
2019-04-29T05:44:05.672Z,22.35
2019-04-29T05:46:37.181Z,21.37
2019-04-29T05:49:09.099Z,24.60
2019-04-29T05:51:40.534Z,20.77
2019-04-29T05:54:26.837Z,20.30
2019-04-29T05:56:55.365Z,19.32
2019-04-29T05:59:25.467Z,17.67
2019-04-29T06:01:55.328Z,17.98
2019-04-29T06:04:28.430Z,16.42
2019-04-29T06:06:56.633Z,15.80
2019-04-29T06:09:26.535Z,15.50
2019-04-29T06:11:55.927Z,14.68
2019-04-29T06:14:25.196Z,14.68
2019-04-29T06:16:57.504Z,14.85
2019-04-29T06:19:26.036Z,15.73
2019-04-29T06:21:55.579Z,14.03
2019-04-29T06:24:25.023Z,14.50
2019-04-29T06:26:54.373Z,14.78
2019-04-29T06:29:23.756Z,16.55
2019-04-29T06:31:53.284Z,22.58
2019-04-29T06:34:23.192Z,19.02
2019-04-29T06:36:52.935Z,13.75
2019-04-29T06:39:22.396Z,15.15
2019-04-29T06:41:51.803Z,16.32
2019-04-29T06:44:21.585Z,19.55
2019-04-29T06:46:54.605Z,22.82
2019-04-29T06:49:22.887Z,14.70
2019-04-29T06:51:52.813Z,13.38
2019-04-29T06:54:22.695Z,12.33
2019-04-29T06:56:52.584Z,11.40
2019-04-29T06:59:22.199Z,12.63
2019-04-29T07:01:52.067Z,12.78
2019-04-29T07:04:21.577Z,12.88
2019-04-29T07:06:57.735Z,11.93
2019-04-29T07:09:23.181Z,11.38
2019-04-29T07:11:52.874Z,10.88
2019-04-29T07:14:22.880Z,12.95
2019-04-29T07:16:52.567Z,13.00
2019-04-29T07:19:26.703Z,18.90
2019-04-29T07:21:56.512Z,29.07
2019-04-29T07:26:57.763Z,26.85
2019-04-29T07:29:30.876Z,31.00
2019-04-29T07:32:00.505Z,28.45
2019-04-29T07:35:09.809Z,30.00
2019-04-29T07:37:38.939Z,34.00
2019-04-29T07:40:09.471Z,47.53
2019-04-29T07:42:39.326Z,37.65
2019-04-29T07:45:28.135Z,30.35
2019-04-29T07:48:01.830Z,33.15
2019-04-29T07:50:30.424Z,34.70
2019-04-29T07:53:00.496Z,43.60
2019-04-29T07:55:31.381Z,62.30
2019-04-29T07:58:02.424Z,48.75
2019-04-29T08:00:35.028Z,44.45
2019-04-29T08:03:06.555Z,33.55
2019-04-29T08:05:36.400Z,37.05
2019-04-29T08:08:06.648Z,41.70
2019-04-29T08:10:36.530Z,38.98
2019-04-29T08:13:06.676Z,39.33
2019-04-29T08:15:41.073Z,34.98
2019-04-29T08:18:11.347Z,31.95
2019-04-29T08:20:41.471Z,29.80
2019-04-29T08:23:11.797Z,33.55
2019-04-29T08:25:41.332Z,43.78
2019-04-29T08:28:11.359Z,48.17
2019-04-29T08:30:41.762Z,39.27
2019-04-29T08:33:13.278Z,46.58
2019-04-29T08:35:43.221Z,52.17
2019-04-29T08:38:13.259Z,50.17
2019-04-29T08:40:45.083Z,45.70
2019-04-29T08:43:20.581Z,36.23
2019-04-29T08:45:49.943Z,32.53
2019-04-29T08:48:19.755Z,31.03
2019-04-29T08:50:49.811Z,26.93
2019-04-29T08:53:19.995Z,27.25
2019-04-29T08:55:49.931Z,27.32
2019-04-29T08:58:20.220Z,26.80
2019-04-29T09:00:51.353Z,26.52
2019-04-29T09:03:24.308Z,26.35
2019-04-29T09:06:05.166Z,25.37
2019-04-29T09:08:28.788Z,24.80
2019-04-29T09:13:28.958Z,24.57
2019-04-29T09:15:59.580Z,24.35
2019-04-29T09:18:29.800Z,25.43
2019-04-29T09:21:00.184Z,23.38
2019-04-29T09:23:34.512Z,24.98
2019-04-29T09:26:18.776Z,24.85
2019-04-29T09:28:49.934Z,26.05
2019-04-29T09:31:20.357Z,26.55
2019-04-29T09:33:55.293Z,25.92
2019-04-29T09:36:23.011Z,20.48
2019-04-29T09:38:53.768Z,14.47
2019-04-29T09:41:35.019Z,11.35
2019-04-29T09:44:08.542Z,11.50
2019-04-29T09:46:38.915Z,10.35
2019-04-29T09:49:09.880Z,8.95
2019-04-29T09:51:40.127Z,8.33
2019-04-29T09:54:14.696Z,7.33
2019-04-29T09:56:42.929Z,8.15
2019-04-29T09:59:24.092Z,7.67
2019-04-29T10:01:59.160Z,9.10
2019-04-29T10:04:33.490Z,10.32
2019-04-29T10:07:04.713Z,8.30
2019-04-29T10:09:34.994Z,6.75
2019-04-29T10:12:05.344Z,5.85
2019-04-29T10:14:35.450Z,6.47
2019-04-29T10:17:25.465Z,6.22
2019-04-29T10:19:57.433Z,5.83
2019-04-29T10:24:57.673Z,5.97
2019-04-29T10:27:27.946Z,5.65
2019-04-29T10:29:58.549Z,4.05
2019-04-29T10:32:29.119Z,4.42
2019-04-29T10:35:03.678Z,4.10
2019-04-29T10:37:32.667Z,5.53
2019-04-29T10:40:14.609Z,4.30
2019-04-29T10:42:46.420Z,3.77
2019-04-29T10:47:54.462Z,3.30
2019-04-29T10:50:29.119Z,3.75
2019-04-29T10:52:59.254Z,3.30
2019-04-29T10:55:31.627Z,3.90
2019-04-29T10:58:01.321Z,6.12
2019-04-29T11:01:01.796Z,10.28
2019-04-29T11:03:32.007Z,3.60
2019-04-29T11:06:02.274Z,6.20
2019-04-29T11:08:38.298Z,2.30
2019-04-29T11:11:22.101Z,1.90
2019-04-29T11:13:48.019Z,1.87
2019-04-29T11:16:15.666Z,2.10
2019-04-29T11:18:45.833Z,1.80
2019-04-29T11:21:16.040Z,1.50
2019-04-29T11:23:50.776Z,2.17
2019-04-29T11:26:33.169Z,2.87
2019-04-29T11:29:06.220Z,2.80
2019-04-29T11:31:37.240Z,1.80
2019-04-29T11:34:15.956Z,1.40
2019-04-29T11:36:46.296Z,1.55
2019-04-29T11:39:16.815Z,1.47
2019-04-29T11:41:49.939Z,1.30
2019-04-29T11:44:22.005Z,2.30
2019-04-29T11:46:51.337Z,1.47
2019-04-29T11:49:23.178Z,3.00
2019-04-29T11:52:08.553Z,1.60
2019-04-29T11:54:25.468Z,1.45
2019-04-29T11:56:56.214Z,1.20
2019-04-29T11:59:31.698Z,1.95
2019-04-29T12:02:23.467Z,1.62
2019-04-29T12:04:55.584Z,1.47
2019-04-29T12:07:31.708Z,1.10
2019-04-29T12:10:02.170Z,1.10
2019-04-29T12:12:30.008Z,1.20
2019-04-29T12:15:13.768Z,1.65
2019-04-29T12:17:45.184Z,1.20
2019-04-29T12:20:26.162Z,1.20
2019-04-29T12:22:56.614Z,1.87
2019-04-29T12:25:28.982Z,1.55
2019-04-29T12:28:01.649Z,1.50
2019-04-29T12:30:34.791Z,1.20
2019-04-29T12:33:10.072Z,1.85
2019-04-29T12:35:51.590Z,1.30
2019-04-29T12:38:19.360Z,1.22
2019-04-29T12:41:20.232Z,1.15
2019-04-29T12:43:54.011Z,1.52
2019-04-29T12:46:26.402Z,1.35
2019-04-29T12:48:56.967Z,1.45
2019-04-29T12:51:27.360Z,1.00
2019-04-29T12:53:57.835Z,1.05
2019-04-29T12:56:29.750Z,2.30
2019-04-29T13:01:50.852Z,2.43
2019-04-29T13:04:10.724Z,1.70
2019-04-29T13:06:57.294Z,1.27
2019-04-29T13:09:45.377Z,2.17
2019-04-29T13:12:19.313Z,1.22
2019-04-29T13:15:02.650Z,1.00
2019-04-29T13:17:26.544Z,1.30
2019-04-29T13:20:02.092Z,1.07
2019-04-29T13:22:31.937Z,0.93
2019-04-29T13:25:02.250Z,0.93
2019-04-29T13:27:32.362Z,1.05
2019-04-29T13:30:06.651Z,0.90
2019-04-29T13:32:35.669Z,1.30
2019-04-29T13:35:10.898Z,1.42
2019-04-29T13:37:41.368Z,1.00
2019-04-29T13:40:11.518Z,1.17
2019-04-29T13:42:48.655Z,2.30
2019-04-29T13:47:50.472Z,1.72
2019-04-29T13:50:37.942Z,1.57
2019-04-29T13:52:55.138Z,1.20
2019-04-29T13:55:47.152Z,1.17
2019-04-29T13:57:57.695Z,1.20
2019-04-29T14:00:27.500Z,1.05
2019-04-29T14:03:02.027Z,1.10
2019-04-29T14:05:36.684Z,1.00
2019-04-29T14:08:04.779Z,1.20
2019-04-29T14:10:35.038Z,1.10
2019-04-29T14:13:11.927Z,1.25
2019-04-29T14:15:40.340Z,1.20
2019-04-29T14:18:11.806Z,1.30
2019-04-29T14:20:41.404Z,3.77
2019-04-29T14:23:11.985Z,1.92
2019-04-29T14:25:42.102Z,1.50
2019-04-29T14:28:12.985Z,1.40
2019-04-29T14:30:47.639Z,1.25
2019-04-29T14:33:19.115Z,2.10
2019-04-29T14:35:51.300Z,2.00
2019-04-29T14:38:24.287Z,1.10
2019-04-29T14:43:41.960Z,2.62
2019-04-29T14:46:25.542Z,2.30
2019-04-29T14:49:05.804Z,1.27
2019-04-29T14:51:36.902Z,1.12
2019-04-29T14:54:07.553Z,1.40
2019-04-29T14:56:38.109Z,1.27
2019-04-29T14:59:08.636Z,1.32
2019-04-29T15:01:43.440Z,1.10
2019-04-29T15:04:19.183Z,1.12
2019-04-29T15:06:47.360Z,1.00
2019-04-29T15:09:19.929Z,1.10
2019-04-29T15:12:09.459Z,1.25
2019-04-29T15:14:54.603Z,1.22
2019-04-29T15:17:40.414Z,1.30
2019-04-29T15:20:12.841Z,1.20
2019-04-29T15:25:16.815Z,1.60
2019-04-29T15:27:45.620Z,1.00
2019-04-29T15:30:16.111Z,1.17
2019-04-29T15:32:46.272Z,0.90
2019-04-29T15:35:19.869Z,1.00
2019-04-29T15:37:48.814Z,1.10
2019-04-29T15:40:20.753Z,1.00
2019-04-29T15:42:53.537Z,0.80
2019-04-29T15:45:28.027Z,1.10
2019-04-29T15:47:57.435Z,1.22
2019-04-29T15:50:27.701Z,1.30
2019-04-29T15:52:58.777Z,1.22
2019-04-29T15:55:29.679Z,0.98
2019-04-29T15:58:00.191Z,0.85
2019-04-29T16:00:36.544Z,0.90
2019-04-29T16:03:02.880Z,1.10
2019-04-29T16:05:34.884Z,0.80
2019-04-29T16:08:22.821Z,1.05
2019-04-29T16:11:01.117Z,1.95
2019-04-29T16:13:31.694Z,1.07
2019-04-29T16:16:01.819Z,1.10
2019-04-29T16:18:32.123Z,1.02
2019-04-29T16:21:02.502Z,0.90
2019-04-29T16:23:32.715Z,0.82
2019-04-29T16:26:04.967Z,0.93
2019-04-29T16:28:39.964Z,1.00
2019-04-29T16:31:12.241Z,0.75
2019-04-29T16:33:39.491Z,1.10
2019-04-29T16:36:09.837Z,1.00
2019-04-29T16:38:40.222Z,0.93
2019-04-29T16:41:27.527Z,0.95
2019-04-29T16:43:58.486Z,0.80
2019-04-29T16:46:37.331Z,1.30
2019-04-29T16:49:02.295Z,1.17
2019-04-29T16:51:32.916Z,1.60
2019-04-29T16:54:03.531Z,0.98
2019-04-29T16:56:34.077Z,0.75
2019-04-29T16:59:09.263Z,0.93
2019-04-29T17:01:35.762Z,0.53
2019-04-29T17:04:05.840Z,0.82
2019-04-29T17:06:40.946Z,0.88
2019-04-29T17:09:09.722Z,0.90
2019-04-29T17:11:44.416Z,0.80
2019-04-29T17:14:14.945Z,0.98
2019-04-29T17:16:45.302Z,0.75
2019-04-29T17:19:15.105Z,0.80
2019-04-29T17:21:45.138Z,0.60
2019-04-29T17:24:15.318Z,0.78
2019-04-29T17:26:54.989Z,0.80
2019-04-29T17:29:39.088Z,0.78
2019-04-29T17:32:08.311Z,0.80
2019-04-29T17:34:58.087Z,1.12
2019-04-29T17:37:12.011Z,1.17
2019-04-29T17:39:42.380Z,0.82
2019-04-29T17:42:13.171Z,1.17
2019-04-29T17:44:45.001Z,0.85
2019-04-29T17:47:22.448Z,1.02
2019-04-29T17:49:55.207Z,1.50
2019-04-29T17:52:27.216Z,1.50
2019-04-29T17:55:12.384Z,0.90
2019-04-29T17:57:54.476Z,1.17
2019-04-29T18:00:41.387Z,1.35
2019-04-29T18:03:22.466Z,1.87
2019-04-29T18:05:57.599Z,1.45
2019-04-29T18:08:31.518Z,1.80
2019-04-29T18:11:06.567Z,1.32
2019-04-29T18:13:35.640Z,1.47
2019-04-29T18:16:17.430Z,1.90
2019-04-29T18:18:46.675Z,2.10
2019-04-29T18:21:31.704Z,1.85
2019-04-29T18:24:05.008Z,1.35
2019-04-29T18:26:44.243Z,1.62
2019-04-29T18:29:16.161Z,2.00
2019-04-29T18:31:47.141Z,2.75
2019-04-29T18:34:17.677Z,3.25
2019-04-29T18:36:48.171Z,3.70
2019-04-29T18:39:24.210Z,2.10
2019-04-29T18:41:52.378Z,1.87
2019-04-29T18:44:22.307Z,2.02
2019-04-29T18:46:53.778Z,1.42
2019-04-29T18:49:25.825Z,1.80
2019-04-29T18:51:57.875Z,1.72
2019-04-29T18:54:27.754Z,1.72
2019-04-29T18:56:58.342Z,1.65
2019-04-29T18:59:33.501Z,2.80
2019-04-29T19:04:39.402Z,2.83
2019-04-29T19:07:09.175Z,2.72
2019-04-29T19:09:39.749Z,2.47
2019-04-29T19:12:09.110Z,2.40
2019-04-29T19:14:38.751Z,2.20
2019-04-29T19:17:08.696Z,2.67
2019-04-29T19:19:39.454Z,2.80
2019-04-29T19:22:09.661Z,2.45
2019-04-29T19:24:39.423Z,3.20
2019-04-29T19:27:10.022Z,2.98
2019-04-29T19:29:43.341Z,3.67
2019-04-29T19:32:11.247Z,3.90
2019-04-29T19:34:43.293Z,3.10
2019-04-29T19:37:11.814Z,3.67
2019-04-29T19:39:41.525Z,3.30
2019-04-29T19:42:10.935Z,2.50
2019-04-29T19:44:40.285Z,2.12
2019-04-29T19:47:10.823Z,2.65
2019-04-29T19:49:44.664Z,3.40
2019-04-29T19:52:12.279Z,4.90
2019-04-29T19:54:42.189Z,4.20
2019-04-29T19:57:11.680Z,4.65
2019-04-29T19:59:51.983Z,5.72
2019-04-29T20:02:19.807Z,5.47
2019-04-29T20:05:00.870Z,6.90
2019-04-29T20:07:31.679Z,6.50
2019-04-29T20:10:05.326Z,6.90
2019-04-29T20:12:33.308Z,5.87
2019-04-29T20:15:07.719Z,5.72
2019-04-29T20:17:47.103Z,5.72
2019-04-29T20:20:17.842Z,5.65
2019-04-29T20:22:51.051Z,5.97
2019-04-29T20:25:29.154Z,5.85
2019-04-29T20:28:02.664Z,5.70
2019-04-29T20:30:22.176Z,5.25
2019-04-29T20:32:51.679Z,5.67
2019-04-29T20:35:21.457Z,6.28
2019-04-29T20:37:55.731Z,6.17
2019-04-29T20:40:22.389Z,6.10
2019-04-29T20:42:52.086Z,4.78
2019-04-29T20:45:25.470Z,4.80
2019-04-29T20:47:52.446Z,4.33
2019-04-29T20:50:22.086Z,4.35
2019-04-29T20:52:59.093Z,3.80
2019-04-29T20:55:24.236Z,4.03
2019-04-29T20:57:54.094Z,3.90
2019-04-29T21:00:24.952Z,4.10
2019-04-29T21:02:54.584Z,4.58
2019-04-29T21:05:26.882Z,4.05
2019-04-29T21:08:03.038Z,3.90
2019-04-29T21:10:27.402Z,4.78
2019-04-29T21:12:59.508Z,4.72
2019-04-29T21:18:06.050Z,4.58
2019-04-29T21:20:35.363Z,4.60
2019-04-29T21:23:05.557Z,5.00
2019-04-29T21:25:35.645Z,4.78
2019-04-29T21:28:06.028Z,5.28
2019-04-29T21:30:42.345Z,4.55
2019-04-29T21:33:08.218Z,5.65
2019-04-29T21:35:41.763Z,5.40
2019-04-29T21:38:17.859Z,5.33
2019-04-29T21:40:47.779Z,6.40
2019-04-29T21:43:21.498Z,6.72
2019-04-29T21:45:50.943Z,5.83
2019-04-29T21:48:25.656Z,6.90
2019-04-29T21:50:51.203Z,6.97
2019-04-29T21:53:20.435Z,7.72
2019-04-29T21:55:49.830Z,6.58
2019-04-29T21:58:19.248Z,7.55
2019-04-29T22:00:48.809Z,7.87
2019-04-29T22:03:19.868Z,7.58
2019-04-29T22:05:53.558Z,7.45
2019-04-29T22:08:25.089Z,8.30
2019-04-29T22:10:51.344Z,7.83
2019-04-29T22:13:20.630Z,8.00
2019-04-29T22:15:49.785Z,7.80
2019-04-29T22:18:19.071Z,7.80
2019-04-29T22:20:48.333Z,7.60
2019-04-29T22:23:17.760Z,8.18
2019-04-29T22:25:47.261Z,7.62
2019-04-29T22:28:19.802Z,8.15
2019-04-29T22:30:49.808Z,7.90
2019-04-29T22:33:18.884Z,7.80
2019-04-29T22:35:48.163Z,7.92
2019-04-29T22:38:18.714Z,8.03
2019-04-29T22:40:49.170Z,7.70
2019-04-29T22:43:20.068Z,7.55
2019-04-29T22:45:49.318Z,7.67
2019-04-29T22:48:19.850Z,8.38
2019-04-29T22:50:49.100Z,8.28
2019-04-29T22:53:18.342Z,7.92
2019-04-29T22:55:47.535Z,8.15
2019-04-29T22:58:16.697Z,7.92
2019-04-29T23:00:45.911Z,7.70
2019-04-29T23:03:15.129Z,8.03
2019-04-29T23:05:46.127Z,8.35
2019-04-29T23:08:15.493Z,9.35
2019-04-29T23:10:45.622Z,8.70
2019-04-29T23:13:15.062Z,9.60
2019-04-29T23:15:45.508Z,10.90
2019-04-29T23:18:24.260Z,11.33
2019-04-29T23:20:50.246Z,11.12
2019-04-29T23:23:21.091Z,11.20
2019-04-29T23:25:51.894Z,11.90
2019-04-29T23:28:22.545Z,11.20
2019-04-29T23:30:53.444Z,11.73
2019-04-29T23:33:24.054Z,10.85
2019-04-29T23:35:55.956Z,10.63
2019-04-29T23:38:25.568Z,10.00
2019-04-29T23:40:56.426Z,10.08
2019-04-29T23:43:28.417Z,10.78
2019-04-29T23:46:00.375Z,10.55
2019-04-29T23:48:38.891Z,10.13
2019-04-29T23:50:59.448Z,8.93
2019-04-29T23:53:28.732Z,10.13
2019-04-29T23:56:00.261Z,10.05
2019-04-29T23:58:37.236Z,9.60
